createdAt,value
2023-01-31T00:00:36.127Z,1.25
2023-01-31T00:01:37.575Z,1.21
2023-01-31T00:02:39.814Z,1.2
2023-01-31T00:03:40.947Z,1.16
2023-01-31T00:04:42.672Z,1.13
2023-01-31T00:05:44.914Z,1.09
2023-01-31T00:06:46.159Z,1.06
2023-01-31T00:07:47.879Z,1.04
2023-01-31T00:08:49.598Z,1.01
2023-01-31T00:09:51.341Z,0.99
2023-01-31T00:10:53.079Z,0.97
2023-01-31T00:11:54.792Z,0.96
2023-01-31T00:12:56.540Z,0.95
2023-01-31T00:13:58.259Z,0.95
2023-01-31T00:15:00.012Z,0.94
2023-01-31T00:16:01.871Z,0.96
2023-01-31T00:17:03.506Z,0.96
2023-01-31T00:18:05.212Z,0.95
2023-01-31T00:19:06.969Z,0.94
2023-01-31T00:20:08.681Z,0.94
2023-01-31T00:21:10.422Z,0.95
2023-01-31T00:22:12.155Z,0.94
2023-01-31T00:23:13.886Z,0.93
2023-01-31T00:24:15.602Z,0.92
2023-01-31T00:25:17.740Z,0.91
2023-01-31T00:26:19.170Z,0.89
2023-01-31T00:27:20.832Z,0.88
2023-01-31T00:28:22.540Z,0.88
2023-01-31T00:29:24.268Z,0.86
2023-01-31T00:30:26.031Z,0.86
2023-01-31T00:31:27.897Z,0.85
2023-01-31T00:32:29.479Z,0.84
2023-01-31T00:33:31.226Z,0.83
2023-01-31T00:34:32.956Z,0.83
2023-01-31T00:35:34.674Z,0.82
2023-01-31T00:36:37.691Z,0.81
2023-01-31T00:37:38.254Z,0.81
2023-01-31T00:38:39.897Z,0.79
2023-01-31T00:39:41.630Z,0.79
2023-01-31T00:40:43.366Z,0.78
2023-01-31T00:41:45.095Z,0.75
2023-01-31T00:42:46.814Z,0.76
2023-01-31T00:43:48.576Z,0.75
2023-01-31T00:44:50.298Z,0.75
2023-01-31T00:45:52.017Z,0.73
2023-01-31T00:46:53.832Z,0.73
2023-01-31T00:47:55.491Z,0.71
2023-01-31T00:48:57.243Z,0.7
2023-01-31T00:49:59.006Z,0.69
2023-01-31T00:51:00.697Z,0.67
2023-01-31T00:52:02.426Z,0.66
2023-01-31T00:53:04.176Z,0.63
2023-01-31T00:54:05.886Z,0.61
2023-01-31T00:55:07.644Z,0.59
2023-01-31T00:56:09.346Z,0.56
2023-01-31T00:57:11.112Z,0.55
2023-01-31T00:58:12.817Z,0.51
2023-01-31T00:59:14.571Z,0.49
2023-01-31T01:00:16.294Z,0.46
2023-01-31T01:01:18.014Z,0.43
2023-01-31T01:02:19.849Z,0.42
2023-01-31T01:03:21.503Z,0.4
2023-01-31T01:04:23.224Z,0.37
2023-01-31T01:05:24.970Z,0.34
2023-01-31T01:06:26.701Z,0.33
2023-01-31T01:07:28.434Z,0.3
2023-01-31T01:08:30.186Z,0.3
2023-01-31T01:09:32.441Z,0.28
2023-01-31T01:10:34.157Z,0.29
2023-01-31T01:11:36.020Z,0.28
2023-01-31T01:12:37.116Z,0.27
2023-01-31T01:13:38.838Z,0.27
2023-01-31T01:14:40.586Z,0.27
2023-01-31T01:15:42.316Z,0.28
2023-01-31T01:16:44.137Z,0.28
2023-01-31T01:17:45.779Z,0.3
2023-01-31T01:18:47.499Z,0.31
2023-01-31T01:19:49.247Z,0.31
2023-01-31T01:20:51.050Z,0.3
2023-01-31T01:21:52.698Z,0.3
2023-01-31T01:22:54.447Z,0.3
2023-01-31T01:23:56.196Z,0.29
2023-01-31T01:24:57.891Z,0.3
2023-01-31T01:25:59.632Z,0.28
2023-01-31T01:27:01.384Z,0.29
2023-01-31T01:28:03.107Z,0.28
2023-01-31T01:29:04.837Z,0.27
2023-01-31T01:30:06.584Z,0.27
2023-01-31T01:31:08.399Z,0.29
2023-01-31T01:32:10.068Z,0.29
2023-01-31T01:33:11.791Z,0.29
2023-01-31T01:34:13.530Z,0.31
2023-01-31T01:35:15.225Z,0.33
2023-01-31T01:36:16.973Z,0.33
2023-01-31T01:37:18.710Z,0.37
2023-01-31T01:38:20.754Z,0.4
2023-01-31T01:39:22.185Z,0.42
2023-01-31T01:40:23.921Z,0.43
2023-01-31T01:41:25.624Z,0.46
2023-01-31T01:42:27.350Z,0.48
2023-01-31T01:43:29.518Z,0.51
2023-01-31T01:44:30.825Z,0.52
2023-01-31T01:45:32.966Z,0.55
2023-01-31T01:46:34.300Z,0.56
2023-01-31T01:47:36.359Z,0.58
2023-01-31T01:48:37.792Z,0.6
2023-01-31T01:49:39.520Z,0.63
2023-01-31T01:50:41.259Z,0.65
2023-01-31T01:51:43.003Z,0.66
2023-01-31T01:52:44.713Z,0.68
2023-01-31T01:53:46.455Z,0.71
2023-01-31T01:54:48.176Z,0.72
2023-01-31T01:55:49.926Z,0.74
2023-01-31T01:56:51.643Z,0.76
2023-01-31T01:57:53.376Z,0.77
2023-01-31T01:58:55.136Z,0.78
2023-01-31T01:59:56.866Z,0.8
2023-01-31T02:00:58.650Z,0.81
2023-01-31T02:02:00.358Z,0.81
2023-01-31T02:03:02.039Z,0.82
2023-01-31T02:04:03.785Z,0.81
2023-01-31T02:05:05.537Z,0.82
2023-01-31T02:06:07.251Z,0.81
2023-01-31T02:07:08.980Z,0.81
2023-01-31T02:08:10.731Z,0.81
2023-01-31T02:09:12.452Z,0.81
2023-01-31T02:10:14.189Z,0.81
2023-01-31T02:11:15.932Z,0.8
2023-01-31T02:12:17.649Z,0.8
2023-01-31T02:13:19.392Z,0.79
2023-01-31T02:14:21.119Z,0.8
2023-01-31T02:15:23.016Z,0.8
2023-01-31T02:16:24.778Z,0.8
2023-01-31T02:17:26.727Z,0.79
2023-01-31T02:18:28.063Z,0.78
2023-01-31T02:19:29.792Z,0.77
2023-01-31T02:20:31.512Z,0.75
2023-01-31T02:21:33.275Z,0.75
2023-01-31T02:22:35.006Z,0.74
2023-01-31T02:23:37.238Z,0.74
2023-01-31T02:24:38.453Z,0.71
2023-01-31T02:25:40.178Z,0.69
2023-01-31T02:26:41.936Z,0.67
2023-01-31T02:27:43.665Z,0.65
2023-01-31T02:28:45.369Z,0.63
2023-01-31T02:29:47.136Z,0.6
2023-01-31T02:30:48.923Z,0.59
2023-01-31T02:31:50.654Z,0.57
2023-01-31T02:32:52.321Z,0.55
2023-01-31T02:33:54.084Z,0.53
2023-01-31T02:34:55.792Z,0.53
2023-01-31T02:35:57.543Z,0.53
2023-01-31T02:36:59.260Z,0.52
2023-01-31T02:38:00.976Z,0.52
2023-01-31T02:39:02.742Z,0.52
2023-01-31T02:40:04.461Z,0.54
2023-01-31T02:41:06.184Z,0.55
2023-01-31T02:42:07.921Z,0.55
2023-01-31T02:43:09.676Z,0.55
2023-01-31T02:44:11.403Z,0.56
2023-01-31T02:45:13.146Z,0.57
2023-01-31T02:46:14.893Z,0.58
2023-01-31T02:47:16.611Z,0.59
2023-01-31T02:48:18.333Z,0.59
2023-01-31T02:49:20.749Z,0.61
2023-01-31T02:50:21.838Z,0.61
2023-01-31T02:51:24.039Z,0.61
2023-01-31T02:52:25.278Z,0.61
2023-01-31T02:53:26.991Z,0.6
2023-01-31T02:54:28.734Z,0.61
2023-01-31T02:55:30.463Z,0.59
2023-01-31T02:56:32.219Z,0.58
2023-01-31T02:57:33.912Z,0.59
2023-01-31T02:58:35.673Z,0.56
2023-01-31T02:59:37.433Z,0.56
2023-01-31T03:00:39.144Z,0.55
2023-01-31T03:01:40.883Z,0.54
2023-01-31T03:02:42.656Z,0.53
2023-01-31T03:03:44.357Z,0.51
2023-01-31T03:04:46.069Z,0.5
2023-01-31T03:05:47.891Z,0.49
2023-01-31T03:06:49.534Z,0.49
2023-01-31T03:07:51.304Z,0.48
2023-01-31T03:08:52.988Z,0.46
2023-01-31T03:09:54.767Z,0.48
2023-01-31T03:10:56.476Z,0.47
2023-01-31T03:11:58.234Z,0.48
2023-01-31T03:13:00.114Z,0.47
2023-01-31T03:14:01.676Z,0.46
2023-01-31T03:15:03.405Z,0.45
2023-01-31T03:16:05.147Z,0.45
2023-01-31T03:17:06.863Z,0.45
2023-01-31T03:18:08.628Z,0.45
2023-01-31T03:19:10.319Z,0.43
2023-01-31T03:20:12.052Z,0.43
2023-01-31T03:21:13.808Z,0.42
2023-01-31T03:22:15.561Z,0.42
2023-01-31T03:23:17.267Z,0.4
2023-01-31T03:24:19.192Z,0.39
2023-01-31T03:25:20.938Z,0.38
2023-01-31T03:26:22.524Z,0.36
2023-01-31T03:27:24.193Z,0.36
2023-01-31T03:28:25.953Z,0.36
2023-01-31T03:29:27.672Z,0.36
2023-01-31T03:30:29.397Z,0.35
2023-01-31T03:31:31.423Z,0.34
2023-01-31T03:32:32.876Z,0.35
2023-01-31T03:33:34.626Z,0.35
2023-01-31T03:34:36.475Z,0.38
2023-01-31T03:35:38.074Z,0.37
2023-01-31T03:36:39.822Z,0.37
2023-01-31T03:37:41.542Z,0.38
2023-01-31T03:38:43.291Z,0.38
2023-01-31T03:39:45.040Z,0.39
2023-01-31T03:40:46.757Z,0.39
2023-01-31T03:41:48.480Z,0.38
2023-01-31T03:42:50.235Z,0.37
2023-01-31T03:43:51.964Z,0.37
2023-01-31T03:44:53.700Z,0.36
2023-01-31T03:45:55.470Z,0.35
2023-01-31T03:46:57.165Z,0.35
2023-01-31T03:47:58.895Z,0.35
2023-01-31T03:49:00.622Z,0.33
2023-01-31T03:50:02.391Z,0.31
2023-01-31T03:51:04.097Z,0.31
2023-01-31T03:52:05.846Z,0.29
2023-01-31T03:53:07.542Z,0.28
2023-01-31T03:54:09.314Z,0.27
2023-01-31T03:55:11.036Z,0.26
2023-01-31T03:56:13.296Z,0.25
2023-01-31T03:57:14.497Z,0.23
2023-01-31T03:58:16.758Z,0.23
2023-01-31T03:59:17.957Z,0.22
2023-01-31T04:00:19.684Z,0.21
2023-01-31T04:01:21.420Z,0.21
2023-01-31T04:02:23.213Z,0.2
2023-01-31T04:03:24.893Z,0.2
2023-01-31T04:04:26.649Z,0.2
2023-01-31T04:05:28.370Z,0.18
2023-01-31T04:06:30.085Z,0.18
2023-01-31T04:07:32.454Z,0.18
2023-01-31T04:08:33.565Z,0.18
2023-01-31T04:09:35.296Z,0.19
2023-01-31T04:10:37.039Z,0.18
2023-01-31T04:11:38.771Z,0.18
2023-01-31T04:12:40.520Z,0.18
2023-01-31T04:13:42.244Z,0.17
2023-01-31T04:14:43.994Z,0.18
2023-01-31T04:15:45.778Z,0.17
2023-01-31T04:16:47.441Z,0.18
2023-01-31T04:17:49.180Z,0.17
2023-01-31T04:18:50.909Z,0.16
2023-01-31T04:19:52.642Z,0.17
2023-01-31T04:20:54.389Z,0.15
2023-01-31T04:21:56.101Z,0.16
2023-01-31T04:22:57.869Z,0.14
2023-01-31T04:23:59.578Z,0.16
2023-01-31T04:25:01.305Z,0.15
2023-01-31T04:26:03.032Z,0.15
2023-01-31T04:27:04.777Z,0.16
2023-01-31T04:28:06.521Z,0.15
2023-01-31T04:29:08.247Z,0.15
2023-01-31T04:30:09.968Z,0.15
2023-01-31T04:31:12.124Z,0.14
2023-01-31T04:32:13.537Z,0.14
2023-01-31T04:33:15.192Z,0.13
2023-01-31T04:34:16.917Z,0.14
2023-01-31T04:35:18.996Z,0.12
2023-01-31T04:36:20.366Z,0.12
2023-01-31T04:37:22.149Z,0.11
2023-01-31T04:38:23.891Z,0.1
2023-01-31T04:39:25.583Z,0.08
2023-01-31T04:40:27.308Z,0.08
2023-01-31T04:41:29.039Z,0.06
2023-01-31T04:42:30.779Z,0.04
2023-01-31T04:43:32.993Z,0.04
2023-01-31T04:44:34.263Z,0.02
2023-01-31T04:45:36.575Z,0.02
2023-01-31T04:46:37.773Z,0.01
2023-01-31T04:47:39.448Z,-0.01
2023-01-31T04:48:41.188Z,-0.02
2023-01-31T04:49:42.904Z,-0.01
2023-01-31T04:50:44.649Z,-0.03
2023-01-31T04:51:46.388Z,-0.03
2023-01-31T04:52:48.123Z,-0.03
2023-01-31T04:53:49.847Z,-0.04
2023-01-31T04:54:51.613Z,-0.04
2023-01-31T04:55:53.321Z,-0.05
2023-01-31T04:56:55.047Z,-0.07
2023-01-31T04:57:56.786Z,-0.09
2023-01-31T04:58:58.517Z,-0.09
2023-01-31T05:00:00.240Z,-0.1
2023-01-31T05:01:02.028Z,-0.1
2023-01-31T05:02:03.715Z,-0.11
2023-01-31T05:03:06.145Z,-0.1
2023-01-31T05:04:07.165Z,-0.09
2023-01-31T05:05:08.921Z,-0.11
2023-01-31T05:06:10.652Z,-0.09
2023-01-31T05:07:12.389Z,-0.08
2023-01-31T05:08:14.106Z,-0.07
2023-01-31T05:09:15.849Z,-0.06
2023-01-31T05:10:17.563Z,-0.07
2023-01-31T05:11:19.307Z,-0.07
2023-01-31T05:12:21.043Z,-0.07
2023-01-31T05:13:22.787Z,-0.07
2023-01-31T05:14:24.511Z,-0.06
2023-01-31T05:15:26.265Z,-0.07
2023-01-31T05:16:28.062Z,-0.07
2023-01-31T05:17:29.868Z,-0.06
2023-01-31T05:18:31.507Z,-0.06
2023-01-31T05:19:33.238Z,-0.06
2023-01-31T05:20:34.920Z,-0.06
2023-01-31T05:21:36.651Z,-0.06
2023-01-31T05:22:38.384Z,-0.07
2023-01-31T05:23:40.118Z,-0.06
2023-01-31T05:24:41.854Z,-0.06
2023-01-31T05:25:43.578Z,-0.04
2023-01-31T05:26:45.365Z,-0.05
2023-01-31T05:27:47.060Z,-0.05
2023-01-31T05:28:48.790Z,-0.06
2023-01-31T05:29:50.540Z,-0.06
2023-01-31T05:30:52.299Z,-0.06
2023-01-31T05:31:54.022Z,-0.07
2023-01-31T05:32:55.711Z,-0.06
2023-01-31T05:33:57.490Z,-0.07
2023-01-31T05:34:59.203Z,-0.07
2023-01-31T05:36:00.920Z,-0.07
2023-01-31T05:37:02.764Z,-0.06
2023-01-31T05:38:04.392Z,-0.07
2023-01-31T05:39:06.108Z,-0.06
2023-01-31T05:40:07.855Z,-0.06
2023-01-31T05:41:09.589Z,-0.05
2023-01-31T05:42:11.313Z,-0.04
2023-01-31T05:43:13.056Z,-0.04
2023-01-31T05:44:14.784Z,-0.03
2023-01-31T05:45:16.744Z,-0.02
2023-01-31T05:46:18.248Z,-0.01
2023-01-31T05:47:20.011Z,0.01
2023-01-31T05:48:21.719Z,0.02
2023-01-31T05:49:23.454Z,0.03
2023-01-31T05:50:25.196Z,0.05
2023-01-31T05:51:26.912Z,0.05
2023-01-31T05:52:28.864Z,0.07
2023-01-31T05:53:31.144Z,0.08
2023-01-31T05:54:32.624Z,0.09
2023-01-31T05:55:33.877Z,0.1
2023-01-31T05:56:35.845Z,0.09
2023-01-31T05:57:37.325Z,0.1
2023-01-31T05:58:39.058Z,0.1
2023-01-31T05:59:40.786Z,0.09
2023-01-31T06:00:42.528Z,0.09
2023-01-31T06:01:44.325Z,0.07
2023-01-31T06:02:45.988Z,0.07
2023-01-31T06:03:47.722Z,0.04
2023-01-31T06:04:49.459Z,0.02
2023-01-31T06:05:51.209Z,-0.02
2023-01-31T06:06:52.924Z,-0.04
2023-01-31T06:07:54.669Z,-0.06
2023-01-31T06:08:56.409Z,-0.08
2023-01-31T06:09:58.927Z,-0.11
2023-01-31T06:11:00.025Z,-0.14
2023-01-31T06:12:01.605Z,-0.17
2023-01-31T06:13:03.337Z,-0.2
2023-01-31T06:14:05.060Z,-0.22
2023-01-31T06:15:06.794Z,-0.24
2023-01-31T06:16:08.600Z,-0.25
2023-01-31T06:17:10.280Z,-0.26
2023-01-31T06:18:12.010Z,-0.29
2023-01-31T06:19:13.731Z,-0.3
2023-01-31T06:20:15.528Z,-0.31
2023-01-31T06:21:17.201Z,-0.32
2023-01-31T06:22:18.928Z,-0.32
2023-01-31T06:23:20.662Z,-0.33
2023-01-31T06:24:22.406Z,-0.33
2023-01-31T06:25:24.135Z,-0.33
2023-01-31T06:26:25.887Z,-0.33
2023-01-31T06:27:27.599Z,-0.34
2023-01-31T06:28:29.337Z,-0.32
2023-01-31T06:29:31.065Z,-0.33
2023-01-31T06:30:33.283Z,-0.32
2023-01-31T06:31:34.706Z,-0.32
2023-01-31T06:32:36.271Z,-0.32
2023-01-31T06:33:46.219Z,-0.32
2023-01-31T06:34:39.733Z,-0.32
2023-01-31T06:35:41.474Z,-0.32
2023-01-31T06:36:43.193Z,-0.32
2023-01-31T06:37:44.935Z,-0.32
2023-01-31T06:38:46.674Z,-0.33
2023-01-31T06:39:48.433Z,-0.32
2023-01-31T06:40:50.135Z,-0.34
2023-01-31T06:41:51.931Z,-0.33
2023-01-31T06:42:53.615Z,-0.34
2023-01-31T06:43:55.353Z,-0.34
2023-01-31T06:44:57.456Z,-0.34
2023-01-31T06:45:58.808Z,-0.35
2023-01-31T06:47:00.547Z,-0.36
2023-01-31T06:48:02.299Z,-0.36
2023-01-31T06:49:04.047Z,-0.38
2023-01-31T06:50:05.750Z,-0.38
2023-01-31T06:51:07.487Z,-0.37
2023-01-31T06:52:09.219Z,-0.36
2023-01-31T06:53:10.958Z,-0.38
2023-01-31T06:54:12.669Z,-0.38
2023-01-31T06:55:14.445Z,-0.39
2023-01-31T06:56:16.158Z,-0.4
2023-01-31T06:57:17.885Z,-0.42
2023-01-31T06:58:20.819Z,-0.43
2023-01-31T06:59:21.378Z,-0.44
2023-01-31T07:00:23.097Z,-0.46
2023-01-31T07:01:24.865Z,-0.48
2023-01-31T07:02:26.559Z,-0.51
2023-01-31T07:03:28.282Z,-0.52
2023-01-31T07:04:30.456Z,-0.54
2023-01-31T07:05:32.297Z,-0.56
2023-01-31T07:06:33.506Z,-0.58
2023-01-31T07:07:35.243Z,-0.61
2023-01-31T07:08:37.249Z,-0.62
2023-01-31T07:09:38.701Z,-0.64
2023-01-31T07:10:40.420Z,-0.65
2023-01-31T07:11:42.174Z,-0.65
2023-01-31T07:12:43.929Z,-0.66
2023-01-31T07:13:45.656Z,-0.66
2023-01-31T07:14:47.351Z,-0.67
2023-01-31T07:15:49.113Z,-0.67
2023-01-31T07:16:50.813Z,-0.66
2023-01-31T07:17:52.938Z,-0.65
2023-01-31T07:18:54.315Z,-0.65
2023-01-31T07:19:56.164Z,-0.67
2023-01-31T07:20:57.779Z,-0.66
2023-01-31T07:21:59.484Z,-0.67
2023-01-31T07:23:01.253Z,-0.65
2023-01-31T07:24:02.976Z,-0.66
2023-01-31T07:25:04.699Z,-0.66
2023-01-31T07:26:06.426Z,-0.65
2023-01-31T07:27:08.187Z,-0.65
2023-01-31T07:28:09.925Z,-0.65
2023-01-31T07:29:11.630Z,-0.63
2023-01-31T07:30:13.357Z,-0.64
2023-01-31T07:31:15.174Z,-0.61
2023-01-31T07:32:16.851Z,-0.61
2023-01-31T07:33:18.676Z,-0.59
2023-01-31T07:34:20.299Z,-0.57
2023-01-31T07:35:22.335Z,-0.54
2023-01-31T07:36:23.771Z,-0.51
2023-01-31T07:37:25.525Z,-0.47
2023-01-31T07:38:27.266Z,-0.41
2023-01-31T07:39:28.988Z,-0.36
2023-01-31T07:40:31.044Z,-0.27
2023-01-31T07:41:32.463Z,-0.16
2023-01-31T07:42:34.182Z,-0.06
2023-01-31T07:43:35.919Z,0.03
2023-01-31T07:44:37.661Z,0.14
2023-01-31T07:45:39.804Z,0.23
2023-01-31T07:46:41.102Z,0.34
2023-01-31T07:47:42.879Z,0.42
2023-01-31T07:48:44.568Z,0.51
2023-01-31T07:49:46.312Z,0.59
2023-01-31T07:50:48.117Z,0.69
2023-01-31T07:51:49.783Z,0.76
2023-01-31T07:52:51.547Z,0.83
2023-01-31T07:53:53.256Z,0.89
2023-01-31T07:54:54.970Z,0.92
2023-01-31T07:55:56.720Z,0.91
2023-01-31T07:56:58.454Z,0.9
2023-01-31T07:58:00.210Z,0.89
2023-01-31T07:59:01.910Z,0.88
2023-01-31T08:00:03.671Z,0.88
2023-01-31T08:01:05.467Z,0.87
2023-01-31T08:02:07.119Z,0.85
2023-01-31T08:03:08.869Z,0.85
2023-01-31T08:04:20.460Z,0.82
2023-01-31T08:05:12.353Z,0.81
2023-01-31T08:06:14.054Z,0.81
2023-01-31T08:07:15.813Z,0.81
2023-01-31T08:08:17.551Z,0.79
2023-01-31T08:09:19.262Z,0.77
2023-01-31T08:10:20.993Z,0.76
2023-01-31T08:11:22.718Z,0.75
2023-01-31T08:12:24.479Z,0.74
2023-01-31T08:13:26.205Z,0.73
2023-01-31T08:14:27.949Z,0.72
2023-01-31T08:15:29.665Z,0.73
2023-01-31T08:16:31.785Z,0.69
2023-01-31T08:17:33.133Z,0.69
2023-01-31T08:18:34.886Z,0.69
2023-01-31T08:19:36.607Z,0.68
2023-01-31T08:20:38.333Z,0.69
2023-01-31T08:21:40.056Z,0.66
2023-01-31T08:22:41.813Z,0.66
2023-01-31T08:23:43.561Z,0.65
2023-01-31T08:24:45.280Z,0.66
2023-01-31T08:25:47.019Z,0.65
2023-01-31T08:26:48.784Z,0.66
2023-01-31T08:27:50.496Z,0.66
2023-01-31T08:28:52.205Z,0.66
2023-01-31T08:29:53.947Z,0.68
2023-01-31T08:31:07.781Z,0.68
2023-01-31T08:31:57.534Z,0.69
2023-01-31T08:32:59.159Z,0.69
2023-01-31T08:34:00.869Z,0.69
2023-01-31T08:35:02.642Z,0.69
2023-01-31T08:36:04.352Z,0.68
2023-01-31T08:37:06.105Z,0.69
2023-01-31T08:38:18.462Z,0.69
2023-01-31T08:39:09.575Z,0.68
2023-01-31T08:40:11.294Z,0.71
2023-01-31T08:41:13.008Z,0.71
2023-01-31T08:42:14.749Z,0.73
2023-01-31T08:43:16.481Z,0.75
2023-01-31T08:44:18.216Z,0.77
2023-01-31T08:45:20.303Z,0.78
2023-01-31T08:46:21.685Z,0.82
2023-01-31T08:47:23.424Z,0.83
2023-01-31T08:48:25.174Z,0.87
2023-01-31T08:49:26.881Z,0.9
2023-01-31T08:50:29.079Z,0.93
2023-01-31T08:51:30.426Z,0.95
2023-01-31T08:52:32.073Z,0.99
2023-01-31T08:53:34.049Z,1.03
2023-01-31T08:54:35.548Z,1.07
2023-01-31T08:55:37.284Z,1.12
2023-01-31T08:56:39.040Z,1.15
2023-01-31T08:57:52.659Z,1.19
2023-01-31T08:58:42.483Z,1.22
2023-01-31T08:59:44.217Z,1.25
2023-01-31T09:00:45.934Z,1.28
2023-01-31T09:01:47.729Z,1.3
2023-01-31T09:02:49.451Z,1.31
2023-01-31T09:03:51.156Z,1.32
2023-01-31T09:04:52.862Z,1.34
2023-01-31T09:05:54.608Z,1.35
2023-01-31T09:06:56.342Z,1.36
2023-01-31T09:07:58.091Z,1.37
2023-01-31T09:08:59.815Z,1.38
2023-01-31T09:10:01.538Z,1.39
2023-01-31T09:11:03.280Z,1.39
2023-01-31T09:12:05.027Z,1.39
2023-01-31T09:13:06.742Z,1.39
2023-01-31T09:14:08.472Z,1.39
2023-01-31T09:15:10.210Z,1.4
2023-01-31T09:16:11.945Z,1.39
2023-01-31T09:17:13.706Z,1.4
2023-01-31T09:18:15.423Z,1.39
2023-01-31T09:19:17.154Z,1.42
2023-01-31T09:20:18.889Z,1.41
2023-01-31T09:21:20.625Z,1.43
2023-01-31T09:22:22.339Z,1.44
2023-01-31T09:23:24.076Z,1.45
2023-01-31T09:24:25.815Z,1.45
2023-01-31T09:25:41.360Z,1.47
2023-01-31T09:26:29.825Z,1.46
2023-01-31T09:27:31.047Z,1.48
2023-01-31T09:28:33.191Z,1.49
2023-01-31T09:29:34.491Z,1.51
2023-01-31T09:30:36.262Z,1.52
2023-01-31T09:31:38.645Z,1.52
2023-01-31T09:32:39.690Z,1.54
2023-01-31T09:33:41.436Z,1.56
2023-01-31T09:34:43.157Z,1.58
2023-01-31T09:35:44.879Z,1.59
2023-01-31T09:36:46.614Z,1.59
2023-01-31T09:37:48.342Z,1.6
2023-01-31T09:38:50.103Z,1.61
2023-01-31T09:39:51.834Z,1.62
2023-01-31T09:40:53.547Z,1.63
2023-01-31T09:41:55.297Z,1.63
2023-01-31T09:42:57.024Z,1.66
2023-01-31T09:43:58.756Z,1.68
2023-01-31T09:45:00.501Z,1.69
2023-01-31T09:46:02.217Z,1.7
2023-01-31T09:47:04.233Z,1.73
2023-01-31T09:48:05.686Z,1.76
2023-01-31T09:49:07.413Z,1.78
2023-01-31T09:50:11.012Z,1.8
2023-01-31T09:51:10.883Z,1.81
2023-01-31T09:52:12.609Z,1.81
2023-01-31T09:53:14.370Z,1.82
2023-01-31T09:54:16.083Z,1.82
2023-01-31T09:55:18.071Z,1.83
2023-01-31T09:56:19.554Z,1.84
2023-01-31T09:57:21.308Z,1.85
2023-01-31T09:58:23.044Z,1.85
2023-01-31T09:59:24.765Z,1.86
2023-01-31T10:00:26.500Z,1.87
2023-01-31T10:01:28.233Z,1.89
2023-01-31T10:02:29.981Z,1.87
2023-01-31T10:03:31.827Z,1.88
2023-01-31T10:04:33.436Z,1.87
2023-01-31T10:05:35.158Z,1.88
2023-01-31T10:06:37.938Z,1.88
2023-01-31T10:07:38.632Z,1.89
2023-01-31T10:08:40.394Z,1.91
2023-01-31T10:09:42.097Z,1.92
2023-01-31T10:10:43.822Z,1.94
2023-01-31T10:11:45.553Z,1.94
2023-01-31T10:12:47.287Z,1.96
2023-01-31T10:13:49.040Z,2
2023-01-31T10:14:50.764Z,2.03
2023-01-31T10:15:52.478Z,2.06
2023-01-31T10:16:54.230Z,2.1
2023-01-31T10:17:55.979Z,2.14
2023-01-31T10:18:57.748Z,2.17
2023-01-31T10:19:59.424Z,2.21
2023-01-31T10:21:02.201Z,2.23
2023-01-31T10:22:02.891Z,2.27
2023-01-31T10:23:04.635Z,2.29
2023-01-31T10:24:06.371Z,2.33
2023-01-31T10:25:08.095Z,2.35
2023-01-31T10:26:11.206Z,2.38
2023-01-31T10:27:11.557Z,2.4
2023-01-31T10:28:13.312Z,2.43
2023-01-31T10:29:15.049Z,2.45
2023-01-31T10:30:16.770Z,2.46
2023-01-31T10:31:18.550Z,2.49
2023-01-31T10:32:20.224Z,2.51
2023-01-31T10:33:21.975Z,2.53
2023-01-31T10:34:23.696Z,2.55
2023-01-31T10:35:25.429Z,2.58
2023-01-31T10:36:27.794Z,2.6
2023-01-31T10:37:28.969Z,2.61
2023-01-31T10:38:30.883Z,2.62
2023-01-31T10:39:32.541Z,2.63
2023-01-31T10:40:34.112Z,2.63
2023-01-31T10:41:35.837Z,2.64
2023-01-31T10:42:37.588Z,2.65
2023-01-31T10:43:40.841Z,2.66
2023-01-31T10:44:41.042Z,2.66
2023-01-31T10:45:42.810Z,2.69
2023-01-31T10:46:44.504Z,2.71
2023-01-31T10:47:46.501Z,2.75
2023-01-31T10:48:48.360Z,2.79
2023-01-31T10:49:49.715Z,2.8
2023-01-31T10:50:51.447Z,2.84
2023-01-31T10:51:53.193Z,2.85
2023-01-31T10:52:54.926Z,2.87
2023-01-31T10:53:56.786Z,2.87
2023-01-31T10:54:58.369Z,2.86
2023-01-31T10:56:00.362Z,2.86
2023-01-31T10:57:01.850Z,2.86
2023-01-31T10:58:03.600Z,2.86
2023-01-31T10:59:05.306Z,2.84
2023-01-31T11:00:07.050Z,2.84
2023-01-31T11:01:08.869Z,2.83
2023-01-31T11:02:10.569Z,2.84
2023-01-31T11:03:12.266Z,2.83
2023-01-31T11:04:14.002Z,2.85
2023-01-31T11:05:15.711Z,2.86
2023-01-31T11:06:17.456Z,2.87
2023-01-31T11:07:19.207Z,2.89
2023-01-31T11:08:20.942Z,2.89
2023-01-31T11:09:23.036Z,2.91
2023-01-31T11:10:24.494Z,2.89
2023-01-31T11:11:26.117Z,2.91
2023-01-31T11:12:27.851Z,2.91
2023-01-31T11:13:29.588Z,2.91
2023-01-31T11:14:31.326Z,2.91
2023-01-31T11:15:33.062Z,2.89
2023-01-31T11:16:34.854Z,2.9
2023-01-31T11:17:36.515Z,2.88
2023-01-31T11:18:38.271Z,2.88
2023-01-31T11:19:39.982Z,2.88
2023-01-31T11:20:41.716Z,2.88
2023-01-31T11:21:43.454Z,2.88
2023-01-31T11:22:45.183Z,2.87
2023-01-31T11:23:46.931Z,2.88
2023-01-31T11:24:48.657Z,2.87
2023-01-31T11:25:50.417Z,2.87
2023-01-31T11:26:52.118Z,2.87
2023-01-31T11:27:53.878Z,2.89
2023-01-31T11:28:55.613Z,2.87
2023-01-31T11:29:59.780Z,2.88
2023-01-31T11:30:59.143Z,2.87
2023-01-31T11:32:00.912Z,2.87
2023-01-31T11:33:02.544Z,2.87
2023-01-31T11:34:04.273Z,2.86
2023-01-31T11:35:05.989Z,2.86
2023-01-31T11:36:07.731Z,2.87
2023-01-31T11:37:09.459Z,2.85
2023-01-31T11:38:11.212Z,2.85
2023-01-31T11:39:12.924Z,2.85
2023-01-31T11:40:14.652Z,2.85
2023-01-31T11:41:16.383Z,2.84
2023-01-31T11:42:18.141Z,2.83
2023-01-31T11:43:19.873Z,2.85
2023-01-31T11:44:21.594Z,2.84
2023-01-31T11:45:23.325Z,2.84
2023-01-31T11:46:25.101Z,2.84
2023-01-31T11:47:26.787Z,2.85
2023-01-31T11:48:28.534Z,2.86
2023-01-31T11:49:30.263Z,2.86
2023-01-31T11:50:32.037Z,2.87
2023-01-31T11:51:33.729Z,2.88
2023-01-31T11:52:35.536Z,2.9
2023-01-31T11:53:37.189Z,2.92
2023-01-31T11:54:38.951Z,2.94
2023-01-31T11:55:40.672Z,2.99
2023-01-31T11:56:42.404Z,3.01
2023-01-31T11:57:44.129Z,3.04
2023-01-31T11:58:45.868Z,3.06
2023-01-31T11:59:47.592Z,3.09
2023-01-31T12:00:49.341Z,3.12
2023-01-31T12:01:51.063Z,3.14
2023-01-31T12:02:52.815Z,3.16
2023-01-31T12:04:02.394Z,3.17
2023-01-31T12:04:56.264Z,3.19
2023-01-31T12:05:57.988Z,3.2
2023-01-31T12:06:59.740Z,3.2
2023-01-31T12:08:01.478Z,3.2
2023-01-31T12:09:03.206Z,3.2
2023-01-31T12:10:04.944Z,3.21
2023-01-31T12:11:06.687Z,3.22
2023-01-31T12:12:08.420Z,3.23
2023-01-31T12:13:18.626Z,3.23
2023-01-31T12:14:11.868Z,3.25
2023-01-31T12:15:13.615Z,3.25
2023-01-31T12:16:15.375Z,3.25
2023-01-31T12:17:17.053Z,3.26
2023-01-31T12:18:18.815Z,3.25
2023-01-31T12:19:20.550Z,3.26
2023-01-31T12:20:27.456Z,3.26
2023-01-31T12:21:23.993Z,3.26
2023-01-31T12:22:25.733Z,3.26
2023-01-31T12:23:27.466Z,3.25
2023-01-31T12:24:29.197Z,3.26
2023-01-31T12:25:30.968Z,3.25
2023-01-31T12:26:32.758Z,3.24
2023-01-31T12:27:34.410Z,3.24
2023-01-31T12:28:36.149Z,3.25
2023-01-31T12:29:37.862Z,3.25
2023-01-31T12:30:39.665Z,3.25
2023-01-31T12:31:41.423Z,3.26
2023-01-31T12:32:43.071Z,3.26
2023-01-31T12:33:44.814Z,3.27
2023-01-31T12:34:59.536Z,3.26
2023-01-31T12:35:48.266Z,3.26
2023-01-31T12:36:50.027Z,3.28
2023-01-31T12:37:51.757Z,3.29
2023-01-31T12:38:53.490Z,3.31
2023-01-31T12:39:55.219Z,3.31
2023-01-31T12:40:56.964Z,3.33
2023-01-31T12:41:58.689Z,3.34
2023-01-31T12:43:00.429Z,3.35
2023-01-31T12:44:02.159Z,3.36
2023-01-31T12:45:03.887Z,3.37
2023-01-31T12:46:05.734Z,3.37
2023-01-31T12:47:11.337Z,3.39
2023-01-31T12:48:09.094Z,3.39
2023-01-31T12:49:10.809Z,3.4
2023-01-31T12:50:12.567Z,3.42
2023-01-31T12:51:14.268Z,3.42
2023-01-31T12:52:16.029Z,3.43
2023-01-31T12:53:17.798Z,3.43
2023-01-31T12:54:19.475Z,3.43
2023-01-31T12:55:21.709Z,3.43
2023-01-31T12:56:22.933Z,3.45
2023-01-31T12:57:24.686Z,3.46
2023-01-31T12:58:26.430Z,3.46
2023-01-31T12:59:28.149Z,3.47
2023-01-31T13:00:29.925Z,3.47
2023-01-31T13:01:31.649Z,3.48
2023-01-31T13:02:33.448Z,3.49
2023-01-31T13:03:36.489Z,3.51
2023-01-31T13:04:36.840Z,3.53
2023-01-31T13:05:38.550Z,3.54
2023-01-31T13:06:40.309Z,3.56
2023-01-31T13:07:42.023Z,3.57
2023-01-31T13:08:48.588Z,3.59
2023-01-31T13:09:45.493Z,3.6
2023-01-31T13:10:47.244Z,3.62
2023-01-31T13:11:48.932Z,3.63
2023-01-31T13:12:50.682Z,3.64
2023-01-31T13:13:52.414Z,3.65
2023-01-31T13:14:54.134Z,3.66
2023-01-31T13:15:55.917Z,3.67
2023-01-31T13:16:57.626Z,3.69
2023-01-31T13:17:59.339Z,3.7
2023-01-31T13:19:01.095Z,3.72
2023-01-31T13:20:02.813Z,3.72
2023-01-31T13:21:04.545Z,3.74
2023-01-31T13:22:06.261Z,3.76
2023-01-31T13:23:08.026Z,3.78
2023-01-31T13:24:09.752Z,3.8
2023-01-31T13:25:11.491Z,3.8
2023-01-31T13:26:13.310Z,3.81
2023-01-31T13:27:14.952Z,3.82
2023-01-31T13:28:16.715Z,3.82
2023-01-31T13:29:18.422Z,3.82
2023-01-31T13:30:20.196Z,3.83
2023-01-31T13:31:22.075Z,3.84
2023-01-31T13:32:23.622Z,3.86
2023-01-31T13:33:25.353Z,3.87
2023-01-31T13:34:27.096Z,3.87
2023-01-31T13:35:28.798Z,3.88
2023-01-31T13:36:30.533Z,3.87
2023-01-31T13:37:32.296Z,3.88
2023-01-31T13:38:34.048Z,3.87